sensor_id;sensor_type;location;lat;lon;timestamp;temperature;humidity
67817;DHT22;54614;47.576;7.524;2022-12-18T00:03:47;21.20;45.40
67817;DHT22;54614;47.576;7.524;2022-12-18T00:06:14;21.20;45.90
67817;DHT22;54614;47.576;7.524;2022-12-18T00:08:41;21.20;46.10
67817;DHT22;54614;47.576;7.524;2022-12-18T00:11:11;21.20;46.10
67817;DHT22;54614;47.576;7.524;2022-12-18T00:13:42;21.10;46.10
67817;DHT22;54614;47.576;7.524;2022-12-18T00:16:16;21.10;46.10
67817;DHT22;54614;47.576;7.524;2022-12-18T00:18:46;21.10;46.10
67817;DHT22;54614;47.576;7.524;2022-12-18T00:21:13;21.10;46.20
67817;DHT22;54614;47.576;7.524;2022-12-18T00:23:42;21.10;46.20
67817;DHT22;54614;47.576;7.524;2022-12-18T00:26:18;21.10;46.20
67817;DHT22;54614;47.576;7.524;2022-12-18T00:28:46;21.10;46.30
67817;DHT22;54614;47.576;7.524;2022-12-18T00:31:18;21.10;46.30
67817;DHT22;54614;47.576;7.524;2022-12-18T00:33:47;21.10;46.20
67817;DHT22;54614;47.576;7.524;2022-12-18T00:36:18;21.10;46.30
67817;DHT22;54614;47.576;7.524;2022-12-18T00:38:46;21.10;46.30
67817;DHT22;54614;47.576;7.524;2022-12-18T00:41:14;21.10;46.30
67817;DHT22;54614;47.576;7.524;2022-12-18T00:44:03;21.10;46.30
67817;DHT22;54614;47.576;7.524;2022-12-18T00:46:29;21.10;46.20
67817;DHT22;54614;47.576;7.524;2022-12-18T00:48:55;21.10;46.30
67817;DHT22;54614;47.576;7.524;2022-12-18T00:51:22;21.10;46.30
67817;DHT22;54614;47.576;7.524;2022-12-18T00:53:48;21.10;46.40
67817;DHT22;54614;47.576;7.524;2022-12-18T00:56:14;21.00;46.30
67817;DHT22;54614;47.576;7.524;2022-12-18T00:58:39;21.00;46.30
67817;DHT22;54614;47.576;7.524;2022-12-18T01:01:06;21.00;46.40
67817;DHT22;54614;47.576;7.524;2022-12-18T01:03:32;21.00;46.40
67817;DHT22;54614;47.576;7.524;2022-12-18T01:05:58;21.00;46.50
67817;DHT22;54614;47.576;7.524;2022-12-18T01:08:24;21.00;46.40
67817;DHT22;54614;47.576;7.524;2022-12-18T01:10:50;21.00;46.50
67817;DHT22;54614;47.576;7.524;2022-12-18T01:13:16;21.00;46.30
67817;DHT22;54614;47.576;7.524;2022-12-18T01:15:51;21.00;46.40
67817;DHT22;54614;47.576;7.524;2022-12-18T01:18:18;21.00;46.50
67817;DHT22;54614;47.576;7.524;2022-12-18T01:20:43;21.00;46.30
67817;DHT22;54614;47.576;7.524;2022-12-18T01:23:09;21.00;46.30
67817;DHT22;54614;47.576;7.524;2022-12-18T01:25:38;21.00;46.30
67817;DHT22;54614;47.576;7.524;2022-12-18T01:28:04;21.00;46.40
67817;DHT22;54614;47.576;7.524;2022-12-18T01:30:30;21.00;46.50
67817;DHT22;54614;47.576;7.524;2022-12-18T01:32:56;21.00;46.40
67817;DHT22;54614;47.576;7.524;2022-12-18T01:35:21;21.00;46.50
67817;DHT22;54614;47.576;7.524;2022-12-18T01:37:47;20.90;46.40
67817;DHT22;54614;47.576;7.524;2022-12-18T01:40:13;21.00;47.00
67817;DHT22;54614;47.576;7.524;2022-12-18T01:42:39;21.00;46.70
67817;DHT22;54614;47.576;7.524;2022-12-18T01:47:55;20.90;46.50
67817;DHT22;54614;47.576;7.524;2022-12-18T01:50:32;20.90;46.50
67817;DHT22;54614;47.576;7.524;2022-12-18T01:53:14;20.90;46.50
67817;DHT22;54614;47.576;7.524;2022-12-18T01:55:50;20.90;46.40
67817;DHT22;54614;47.576;7.524;2022-12-18T01:58:21;20.90;46.70
67817;DHT22;54614;47.576;7.524;2022-12-18T02:01:06;20.90;46.40
67817;DHT22;54614;47.576;7.524;2022-12-18T02:03:33;20.90;46.40
67817;DHT22;54614;47.576;7.524;2022-12-18T02:17:39;20.80;46.60
67817;DHT22;54614;47.576;7.524;2022-12-18T02:28:19;20.80;46.50
67817;DHT22;54614;47.576;7.524;2022-12-18T02:30:48;20.80;46.50
67817;DHT22;54614;47.576;7.524;2022-12-18T02:33:19;20.80;46.50
67817;DHT22;54614;47.576;7.524;2022-12-18T02:35:47;20.80;46.50
67817;DHT22;54614;47.576;7.524;2022-12-18T02:38:15;20.70;46.70
67817;DHT22;54614;47.576;7.524;2022-12-18T02:40:42;20.70;46.40
67817;DHT22;54614;47.576;7.524;2022-12-18T02:43:12;20.70;46.40
67817;DHT22;54614;47.576;7.524;2022-12-18T02:48:16;20.80;45.80
67817;DHT22;54614;47.576;7.524;2022-12-18T02:50:52;20.70;46.60
67817;DHT22;54614;47.576;7.524;2022-12-18T02:54:03;20.70;46.70
67817;DHT22;54614;47.576;7.524;2022-12-18T02:56:39;20.70;46.50
67817;DHT22;54614;47.576;7.524;2022-12-18T02:59:57;20.70;46.50
67817;DHT22;54614;47.576;7.524;2022-12-18T03:02:37;20.80;46.70
67817;DHT22;54614;47.576;7.524;2022-12-18T03:08:28;20.70;46.50
67817;DHT22;54614;47.576;7.524;2022-12-18T03:11:08;20.70;46.40
67817;DHT22;54614;47.576;7.524;2022-12-18T03:13:49;20.70;46.50
67817;DHT22;54614;47.576;7.524;2022-12-18T03:16:28;20.70;47.40
67817;DHT22;54614;47.576;7.524;2022-12-18T03:19:03;20.70;46.60
67817;DHT22;54614;47.576;7.524;2022-12-18T03:21:40;20.60;46.50
67817;DHT22;54614;47.576;7.524;2022-12-18T03:24:14;20.70;46.70
67817;DHT22;54614;47.576;7.524;2022-12-18T03:26:46;20.60;46.80
67817;DHT22;54614;47.576;7.524;2022-12-18T03:29:29;20.70;50.50
67817;DHT22;54614;47.576;7.524;2022-12-18T03:32:08;20.60;46.50
67817;DHT22;54614;47.576;7.524;2022-12-18T03:34:46;20.40;46.80
67817;DHT22;54614;47.576;7.524;2022-12-18T03:37:16;20.60;46.70
67817;DHT22;54614;47.576;7.524;2022-12-18T03:39:42;20.70;53.80
67817;DHT22;54614;47.576;7.524;2022-12-18T03:45:27;20.60;47.90
67817;DHT22;54614;47.576;7.524;2022-12-18T03:51:23;20.60;47.10
67817;DHT22;54614;47.576;7.524;2022-12-18T03:53:58;20.70;54.00
67817;DHT22;54614;47.576;7.524;2022-12-18T03:56:31;20.70;51.20
67817;DHT22;54614;47.576;7.524;2022-12-18T03:59:03;20.70;53.80
67817;DHT22;54614;47.576;7.524;2022-12-18T04:01:38;20.70;53.70
67817;DHT22;54614;47.576;7.524;2022-12-18T04:04:08;20.70;47.70
67817;DHT22;54614;47.576;7.524;2022-12-18T04:06:37;20.60;50.00
67817;DHT22;54614;47.576;7.524;2022-12-18T04:09:05;20.50;46.50
67817;DHT22;54614;47.576;7.524;2022-12-18T04:11:31;20.50;46.50
67817;DHT22;54614;47.576;7.524;2022-12-18T04:13:58;20.50;46.90
67817;DHT22;54614;47.576;7.524;2022-12-18T04:16:28;20.50;46.60
67817;DHT22;54614;47.576;7.524;2022-12-18T04:18:54;20.50;46.60
67817;DHT22;54614;47.576;7.524;2022-12-18T04:21:20;20.50;46.90
67817;DHT22;54614;47.576;7.524;2022-12-18T04:23:46;20.50;46.80
67817;DHT22;54614;47.576;7.524;2022-12-18T04:26:12;20.60;48.60
67817;DHT22;54614;47.576;7.524;2022-12-18T04:28:38;20.70;48.40
67817;DHT22;54614;47.576;7.524;2022-12-18T04:31:04;20.80;48.70
67817;DHT22;54614;47.576;7.524;2022-12-18T04:33:30;20.80;49.10
67817;DHT22;54614;47.576;7.524;2022-12-18T04:35:56;20.90;49.00
67817;DHT22;54614;47.576;7.524;2022-12-18T04:38:22;21.00;49.60
67817;DHT22;54614;47.576;7.524;2022-12-18T04:40:48;21.10;49.70
67817;DHT22;54614;47.576;7.524;2022-12-18T04:43:14;21.00;49.80
67817;DHT22;54614;47.576;7.524;2022-12-18T04:45:39;21.00;49.50
67817;DHT22;54614;47.576;7.524;2022-12-18T04:48:05;21.10;51.70
67817;DHT22;54614;47.576;7.524;2022-12-18T04:50:31;21.20;54.40
67817;DHT22;54614;47.576;7.524;2022-12-18T04:52:57;21.20;51.00
67817;DHT22;54614;47.576;7.524;2022-12-18T04:55:23;21.20;54.80
67817;DHT22;54614;47.576;7.524;2022-12-18T04:57:49;21.30;53.30
67817;DHT22;54614;47.576;7.524;2022-12-18T05:00:15;21.30;52.10
67817;DHT22;54614;47.576;7.524;2022-12-18T05:02:41;21.30;53.90
67817;DHT22;54614;47.576;7.524;2022-12-18T05:05:08;21.50;55.40
67817;DHT22;54614;47.576;7.524;2022-12-18T05:07:33;21.40;52.30
67817;DHT22;54614;47.576;7.524;2022-12-18T05:09:59;21.40;51.60
67817;DHT22;54614;47.576;7.524;2022-12-18T05:14:51;21.40;48.10
67817;DHT22;54614;47.576;7.524;2022-12-18T05:17:17;21.40;50.40
67817;DHT22;54614;47.576;7.524;2022-12-18T05:19:43;21.40;48.50
67817;DHT22;54614;47.576;7.524;2022-12-18T05:22:09;21.50;49.00
67817;DHT22;54614;47.576;7.524;2022-12-18T05:24:36;21.50;48.10
67817;DHT22;54614;47.576;7.524;2022-12-18T05:27:01;21.50;48.00
67817;DHT22;54614;47.576;7.524;2022-12-18T05:29:27;21.50;47.60
67817;DHT22;54614;47.576;7.524;2022-12-18T05:31:53;21.60;47.50
67817;DHT22;54614;47.576;7.524;2022-12-18T05:34:19;21.50;47.30
67817;DHT22;54614;47.576;7.524;2022-12-18T05:36:44;21.50;46.90
67817;DHT22;54614;47.576;7.524;2022-12-18T05:39:10;21.50;46.60
67817;DHT22;54614;47.576;7.524;2022-12-18T05:41:36;21.50;46.30
67817;DHT22;54614;47.576;7.524;2022-12-18T05:44:02;21.50;46.80
67817;DHT22;54614;47.576;7.524;2022-12-18T05:46:28;21.50;46.10
67817;DHT22;54614;47.576;7.524;2022-12-18T05:51:24;21.50;45.50
67817;DHT22;54614;47.576;7.524;2022-12-18T05:53:50;21.50;46.10
67817;DHT22;54614;47.576;7.524;2022-12-18T05:56:20;21.50;46.10
67817;DHT22;54614;47.576;7.524;2022-12-18T05:58:47;21.50;46.00
67817;DHT22;54614;47.576;7.524;2022-12-18T06:01:20;21.50;46.00
67817;DHT22;54614;47.576;7.524;2022-12-18T06:03:48;21.40;46.00
67817;DHT22;54614;47.576;7.524;2022-12-18T06:06:15;21.40;45.90
67817;DHT22;54614;47.576;7.524;2022-12-18T06:08:45;21.40;45.90
67817;DHT22;54614;47.576;7.524;2022-12-18T06:11:16;21.50;46.00
67817;DHT22;54614;47.576;7.524;2022-12-18T06:13:44;21.40;46.00
67817;DHT22;54614;47.576;7.524;2022-12-18T06:16:10;21.50;46.20
67817;DHT22;54614;47.576;7.524;2022-12-18T06:18:36;21.50;46.30
67817;DHT22;54614;47.576;7.524;2022-12-18T06:21:02;21.50;46.40
67817;DHT22;54614;47.576;7.524;2022-12-18T06:23:28;21.50;46.60
67817;DHT22;54614;47.576;7.524;2022-12-18T06:25:54;21.40;46.60
67817;DHT22;54614;47.576;7.524;2022-12-18T06:28:20;21.40;46.70
67817;DHT22;54614;47.576;7.524;2022-12-18T06:30:49;21.40;46.80
67817;DHT22;54614;47.576;7.524;2022-12-18T06:33:16;21.40;46.80
67817;DHT22;54614;47.576;7.524;2022-12-18T06:35:42;21.40;46.90
67817;DHT22;54614;47.576;7.524;2022-12-18T06:38:08;21.40;46.90
67817;DHT22;54614;47.576;7.524;2022-12-18T06:40:34;21.40;47.00
67817;DHT22;54614;47.576;7.524;2022-12-18T06:43:03;21.40;47.00
67817;DHT22;54614;47.576;7.524;2022-12-18T06:45:28;21.50;47.10
67817;DHT22;54614;47.576;7.524;2022-12-18T06:47:54;21.40;47.10
67817;DHT22;54614;47.576;7.524;2022-12-18T06:50:20;21.40;47.20
67817;DHT22;54614;47.576;7.524;2022-12-18T06:52:46;21.40;47.20
67817;DHT22;54614;47.576;7.524;2022-12-18T06:55:12;21.40;47.30
67817;DHT22;54614;47.576;7.524;2022-12-18T06:57:38;21.40;47.30
67817;DHT22;54614;47.576;7.524;2022-12-18T07:00:07;21.40;47.40
67817;DHT22;54614;47.576;7.524;2022-12-18T07:02:34;21.40;47.40
67817;DHT22;54614;47.576;7.524;2022-12-18T07:05:00;21.40;47.50
67817;DHT22;54614;47.576;7.524;2022-12-18T07:07:26;21.40;47.50
67817;DHT22;54614;47.576;7.524;2022-12-18T07:09:52;21.40;47.50
67817;DHT22;54614;47.576;7.524;2022-12-18T07:12:18;21.40;47.10
67817;DHT22;54614;47.576;7.524;2022-12-18T07:14:44;21.40;47.50
67817;DHT22;54614;47.576;7.524;2022-12-18T07:17:10;21.40;47.60
67817;DHT22;54614;47.576;7.524;2022-12-18T07:19:36;21.40;47.60
67817;DHT22;54614;47.576;7.524;2022-12-18T07:22:02;21.40;47.60
67817;DHT22;54614;47.576;7.524;2022-12-18T07:24:28;21.30;47.60
67817;DHT22;54614;47.576;7.524;2022-12-18T07:26:53;21.30;47.70
67817;DHT22;54614;47.576;7.524;2022-12-18T07:29:19;21.30;47.70
67817;DHT22;54614;47.576;7.524;2022-12-18T07:31:46;21.30;47.70
67817;DHT22;54614;47.576;7.524;2022-12-18T07:34:12;21.30;47.80
67817;DHT22;54614;47.576;7.524;2022-12-18T07:36:40;21.30;47.80
67817;DHT22;54614;47.576;7.524;2022-12-18T07:39:06;21.30;47.70
67817;DHT22;54614;47.576;7.524;2022-12-18T07:41:32;21.30;47.80
67817;DHT22;54614;47.576;7.524;2022-12-18T07:43:59;21.30;47.70
67817;DHT22;54614;47.576;7.524;2022-12-18T07:46:24;21.30;47.70
67817;DHT22;54614;47.576;7.524;2022-12-18T07:48:50;21.30;47.70
67817;DHT22;54614;47.576;7.524;2022-12-18T07:51:17;21.30;47.70
67817;DHT22;54614;47.576;7.524;2022-12-18T07:53:43;21.30;47.70
67817;DHT22;54614;47.576;7.524;2022-12-18T07:56:11;21.30;47.70
67817;DHT22;54614;47.576;7.524;2022-12-18T07:58:37;21.30;47.70
67817;DHT22;54614;47.576;7.524;2022-12-18T08:01:08;21.30;47.70
67817;DHT22;54614;47.576;7.524;2022-12-18T08:03:37;21.30;47.80
67817;DHT22;54614;47.576;7.524;2022-12-18T08:06:06;21.30;47.70
67817;DHT22;54614;47.576;7.524;2022-12-18T08:08:34;21.30;47.80
67817;DHT22;54614;47.576;7.524;2022-12-18T08:11:01;21.30;47.70
67817;DHT22;54614;47.576;7.524;2022-12-18T08:13:27;21.30;47.70
67817;DHT22;54614;47.576;7.524;2022-12-18T08:16:01;21.20;47.60
67817;DHT22;54614;47.576;7.524;2022-12-18T08:18:28;21.30;47.80
67817;DHT22;54614;47.576;7.524;2022-12-18T08:20:55;21.30;47.80
67817;DHT22;54614;47.576;7.524;2022-12-18T08:23:21;21.20;47.80
67817;DHT22;54614;47.576;7.524;2022-12-18T08:25:48;21.20;47.80
67817;DHT22;54614;47.576;7.524;2022-12-18T08:28:13;21.20;47.80
67817;DHT22;54614;47.576;7.524;2022-12-18T08:30:39;21.20;47.80
67817;DHT22;54614;47.576;7.524;2022-12-18T08:33:05;21.20;47.90
67817;DHT22;54614;47.576;7.524;2022-12-18T08:35:35;21.20;47.80
67817;DHT22;54614;47.576;7.524;2022-12-18T08:38:02;21.20;47.90
67817;DHT22;54614;47.576;7.524;2022-12-18T08:40:28;21.20;47.80
67817;DHT22;54614;47.576;7.524;2022-12-18T08:42:54;21.20;47.80
67817;DHT22;54614;47.576;7.524;2022-12-18T08:45:39;21.20;47.80
67817;DHT22;54614;47.576;7.524;2022-12-18T08:48:05;21.20;47.80
67817;DHT22;54614;47.576;7.524;2022-12-18T08:50:30;21.20;47.80
67817;DHT22;54614;47.576;7.524;2022-12-18T08:52:56;21.20;47.90
67817;DHT22;54614;47.576;7.524;2022-12-18T08:55:22;21.20;47.90
67817;DHT22;54614;47.576;7.524;2022-12-18T08:57:48;21.20;47.80
67817;DHT22;54614;47.576;7.524;2022-12-18T09:00:15;21.20;47.80
67817;DHT22;54614;47.576;7.524;2022-12-18T09:02:41;21.20;47.80
67817;DHT22;54614;47.576;7.524;2022-12-18T09:05:07;21.20;47.80
67817;DHT22;54614;47.576;7.524;2022-12-18T09:07:33;21.20;47.80
67817;DHT22;54614;47.576;7.524;2022-12-18T09:09:59;21.20;47.80
67817;DHT22;54614;47.576;7.524;2022-12-18T09:12:25;21.20;47.70
67817;DHT22;54614;47.576;7.524;2022-12-18T09:14:51;21.20;47.80
67817;DHT22;54614;47.576;7.524;2022-12-18T09:17:17;21.20;47.80
67817;DHT22;54614;47.576;7.524;2022-12-18T09:19:43;21.20;47.90
67817;DHT22;54614;47.576;7.524;2022-12-18T09:22:09;21.20;47.90
67817;DHT22;54614;47.576;7.524;2022-12-18T09:24:35;21.20;47.90
67817;DHT22;54614;47.576;7.524;2022-12-18T09:27:01;21.20;48.00
67817;DHT22;54614;47.576;7.524;2022-12-18T09:29:27;21.20;48.00
67817;DHT22;54614;47.576;7.524;2022-12-18T09:31:52;21.20;48.00
67817;DHT22;54614;47.576;7.524;2022-12-18T09:34:18;21.20;48.10
67817;DHT22;54614;47.576;7.524;2022-12-18T09:36:47;21.20;48.10
67817;DHT22;54614;47.576;7.524;2022-12-18T09:39:13;21.20;48.00
67817;DHT22;54614;47.576;7.524;2022-12-18T09:41:41;21.20;48.00
67817;DHT22;54614;47.576;7.524;2022-12-18T09:44:30;21.20;48.00
67817;DHT22;54614;47.576;7.524;2022-12-18T09:47:20;21.20;48.00
67817;DHT22;54614;47.576;7.524;2022-12-18T09:49:55;21.20;48.00
67817;DHT22;54614;47.576;7.524;2022-12-18T09:52:34;21.20;48.00
67817;DHT22;54614;47.576;7.524;2022-12-18T10:01:13;21.20;48.10
67817;DHT22;54614;47.576;7.524;2022-12-18T10:03:41;21.20;48.10
67817;DHT22;54614;47.576;7.524;2022-12-18T10:06:32;21.20;48.10
67817;DHT22;54614;47.576;7.524;2022-12-18T10:09:27;21.20;48.10
67817;DHT22;54614;47.576;7.524;2022-12-18T10:12:14;21.20;47.90
67817;DHT22;54614;47.576;7.524;2022-12-18T10:14:54;21.20;47.60
67817;DHT22;54614;47.576;7.524;2022-12-18T10:17:45;21.20;47.40
67817;DHT22;54614;47.576;7.524;2022-12-18T10:20:45;21.20;47.30
67817;DHT22;54614;47.576;7.524;2022-12-18T10:26:37;21.10;47.10
67817;DHT22;54614;47.576;7.524;2022-12-18T10:29:14;21.10;46.90
67817;DHT22;54614;47.576;7.524;2022-12-18T10:31:42;21.10;46.80
67817;DHT22;54614;47.576;7.524;2022-12-18T10:34:15;21.10;46.60
67817;DHT22;54614;47.576;7.524;2022-12-18T10:36:41;21.10;46.60
67817;DHT22;54614;47.576;7.524;2022-12-18T10:39:17;21.10;46.70
67817;DHT22;54614;47.576;7.524;2022-12-18T10:41:45;21.10;46.60
67817;DHT22;54614;47.576;7.524;2022-12-18T10:44:18;21.10;46.60
67817;DHT22;54614;47.576;7.524;2022-12-18T10:46:55;21.10;46.60
67817;DHT22;54614;47.576;7.524;2022-12-18T10:49:31;21.10;46.80
67817;DHT22;54614;47.576;7.524;2022-12-18T10:52:18;21.20;46.80
67817;DHT22;54614;47.576;7.524;2022-12-18T10:54:58;21.10;46.80
67817;DHT22;54614;47.576;7.524;2022-12-18T10:57:37;21.10;46.70
67817;DHT22;54614;47.576;7.524;2022-12-18T11:02:49;21.10;46.00
67817;DHT22;54614;47.576;7.524;2022-12-18T11:05:32;21.10;46.50
67817;DHT22;54614;47.576;7.524;2022-12-18T11:08:00;21.10;46.50
67817;DHT22;54614;47.576;7.524;2022-12-18T11:10:37;21.10;46.50
67817;DHT22;54614;47.576;7.524;2022-12-18T11:13:17;21.10;46.70
67817;DHT22;54614;47.576;7.524;2022-12-18T11:15:46;21.10;46.50
67817;DHT22;54614;47.576;7.524;2022-12-18T11:18:34;21.10;46.50
67817;DHT22;54614;47.576;7.524;2022-12-18T11:21:05;21.10;46.40
67817;DHT22;54614;47.576;7.524;2022-12-18T11:23:32;21.10;46.60
67817;DHT22;54614;47.576;7.524;2022-12-18T11:26:00;21.10;46.80
67817;DHT22;54614;47.576;7.524;2022-12-18T11:28:38;21.10;46.90
67817;DHT22;54614;47.576;7.524;2022-12-18T11:34:04;21.10;47.20
67817;DHT22;54614;47.576;7.524;2022-12-18T11:36:38;21.10;47.30
67817;DHT22;54614;47.576;7.524;2022-12-18T11:39:39;21.10;47.40
67817;DHT22;54614;47.576;7.524;2022-12-18T11:42:38;21.10;47.40
67817;DHT22;54614;47.576;7.524;2022-12-18T11:47:47;21.10;47.60
67817;DHT22;54614;47.576;7.524;2022-12-18T11:50:24;21.20;47.60
67817;DHT22;54614;47.576;7.524;2022-12-18T11:52:53;21.20;47.60
67817;DHT22;54614;47.576;7.524;2022-12-18T12:01:43;21.30;47.70
67817;DHT22;54614;47.576;7.524;2022-12-18T12:04:36;21.30;47.70
67817;DHT22;54614;47.576;7.524;2022-12-18T12:07:21;21.30;47.60
67817;DHT22;54614;47.576;7.524;2022-12-18T12:21:41;21.40;47.80
67817;DHT22;54614;47.576;7.524;2022-12-18T12:28:02;21.30;47.90
67817;DHT22;54614;47.576;7.524;2022-12-18T12:39:47;21.30;48.00
67817;DHT22;54614;47.576;7.524;2022-12-18T12:45:58;21.30;48.10
67817;DHT22;54614;47.576;7.524;2022-12-18T12:48:44;21.30;48.10
67817;DHT22;54614;47.576;7.524;2022-12-18T12:51:22;21.30;48.20
67817;DHT22;54614;47.576;7.524;2022-12-18T12:53:57;21.30;48.20
67817;DHT22;54614;47.576;7.524;2022-12-18T12:56:37;21.30;48.20
67817;DHT22;54614;47.576;7.524;2022-12-18T13:08:01;21.20;48.30
67817;DHT22;54614;47.576;7.524;2022-12-18T13:10:42;21.20;48.30
67817;DHT22;54614;47.576;7.524;2022-12-18T13:13:11;21.20;48.30
67817;DHT22;54614;47.576;7.524;2022-12-18T13:15:45;21.20;48.30
67817;DHT22;54614;47.576;7.524;2022-12-18T13:18:22;21.20;48.30
67817;DHT22;54614;47.576;7.524;2022-12-18T13:21:02;21.20;48.40
67817;DHT22;54614;47.576;7.524;2022-12-18T13:23:37;21.20;48.40
67817;DHT22;54614;47.576;7.524;2022-12-18T13:31:13;21.20;48.90
67817;DHT22;54614;47.576;7.524;2022-12-18T13:33:47;21.20;48.30
67817;DHT22;54614;47.576;7.524;2022-12-18T13:36:16;21.20;48.40
67817;DHT22;54614;47.576;7.524;2022-12-18T13:41:40;21.20;48.40
67817;DHT22;54614;47.576;7.524;2022-12-18T13:44:19;21.20;48.40
67817;DHT22;54614;47.576;7.524;2022-12-18T13:47:36;21.20;48.40
67817;DHT22;54614;47.576;7.524;2022-12-18T13:52:51;21.20;48.00
67817;DHT22;54614;47.576;7.524;2022-12-18T13:55:19;21.20;48.50
67817;DHT22;54614;47.576;7.524;2022-12-18T13:57:47;21.20;48.50
67817;DHT22;54614;47.576;7.524;2022-12-18T14:02:49;21.20;48.50
67817;DHT22;54614;47.576;7.524;2022-12-18T14:05:30;21.10;48.50
67817;DHT22;54614;47.576;7.524;2022-12-18T14:08:21;21.10;48.50
67817;DHT22;54614;47.576;7.524;2022-12-18T14:10:48;21.10;48.60
67817;DHT22;54614;47.576;7.524;2022-12-18T14:13:31;21.10;48.60
67817;DHT22;54614;47.576;7.524;2022-12-18T14:16:03;21.10;48.60
67817;DHT22;54614;47.576;7.524;2022-12-18T14:18:52;21.10;48.60
67817;DHT22;54614;47.576;7.524;2022-12-18T14:21:28;21.10;48.70
67817;DHT22;54614;47.576;7.524;2022-12-18T14:24:18;21.10;48.70
67817;DHT22;54614;47.576;7.524;2022-12-18T14:26:47;21.10;48.60
67817;DHT22;54614;47.576;7.524;2022-12-18T14:29:26;21.10;48.70
67817;DHT22;54614;47.576;7.524;2022-12-18T14:32:12;21.10;48.70
67817;DHT22;54614;47.576;7.524;2022-12-18T14:34:43;21.10;48.70
67817;DHT22;54614;47.576;7.524;2022-12-18T14:37:14;21.10;48.80
67817;DHT22;54614;47.576;7.524;2022-12-18T14:40:02;21.10;48.70
67817;DHT22;54614;47.576;7.524;2022-12-18T14:42:29;21.10;48.80
67817;DHT22;54614;47.576;7.524;2022-12-18T14:45:36;21.00;48.80
67817;DHT22;54614;47.576;7.524;2022-12-18T14:48:07;21.00;48.80
67817;DHT22;54614;47.576;7.524;2022-12-18T14:50:34;21.00;48.90
67817;DHT22;54614;47.576;7.524;2022-12-18T14:53:00;21.00;48.90
67817;DHT22;54614;47.576;7.524;2022-12-18T14:55:26;21.00;48.90
67817;DHT22;54614;47.576;7.524;2022-12-18T14:57:54;20.90;49.50
67817;DHT22;54614;47.576;7.524;2022-12-18T15:00:23;21.00;49.00
67817;DHT22;54614;47.576;7.524;2022-12-18T15:02:54;20.90;48.90
67817;DHT22;54614;47.576;7.524;2022-12-18T15:05:30;20.90;48.90
67817;DHT22;54614;47.576;7.524;2022-12-18T15:07:58;21.00;49.00
67817;DHT22;54614;47.576;7.524;2022-12-18T15:10:30;20.90;49.00
67817;DHT22;54614;47.576;7.524;2022-12-18T15:18:03;20.90;49.00
67817;DHT22;54614;47.576;7.524;2022-12-18T15:23:25;20.90;49.00
67817;DHT22;54614;47.576;7.524;2022-12-18T15:26:02;20.90;49.10
67817;DHT22;54614;47.576;7.524;2022-12-18T15:28:54;20.90;49.10
67817;DHT22;54614;47.576;7.524;2022-12-18T15:31:30;20.90;49.10
67817;DHT22;54614;47.576;7.524;2022-12-18T15:36:25;20.90;49.10
67817;DHT22;54614;47.576;7.524;2022-12-18T15:38:52;20.90;49.00
67817;DHT22;54614;47.576;7.524;2022-12-18T15:41:21;20.90;49.00
67817;DHT22;54614;47.576;7.524;2022-12-18T15:43:49;20.90;49.00
67817;DHT22;54614;47.576;7.524;2022-12-18T15:46:19;20.90;49.00
67817;DHT22;54614;47.576;7.524;2022-12-18T15:48:49;20.90;49.00
67817;DHT22;54614;47.576;7.524;2022-12-18T15:51:28;20.90;49.00
67817;DHT22;54614;47.576;7.524;2022-12-18T15:53:59;20.90;49.00
67817;DHT22;54614;47.576;7.524;2022-12-18T15:56:29;20.80;49.00
67817;DHT22;54614;47.576;7.524;2022-12-18T15:59:15;20.80;49.00
67817;DHT22;54614;47.576;7.524;2022-12-18T16:01:46;20.80;49.00
67817;DHT22;54614;47.576;7.524;2022-12-18T16:04:15;20.80;49.00
67817;DHT22;54614;47.576;7.524;2022-12-18T16:06:46;20.80;49.00
67817;DHT22;54614;47.576;7.524;2022-12-18T16:09:12;20.80;49.10
67817;DHT22;54614;47.576;7.524;2022-12-18T16:11:39;20.80;49.00
67817;DHT22;54614;47.576;7.524;2022-12-18T16:14:21;20.80;49.10
67817;DHT22;54614;47.576;7.524;2022-12-18T16:16:51;20.70;49.10
67817;DHT22;54614;47.576;7.524;2022-12-18T16:19:21;20.70;49.10
67817;DHT22;54614;47.576;7.524;2022-12-18T16:21:49;20.80;49.00
67817;DHT22;54614;47.576;7.524;2022-12-18T16:24:21;20.70;49.00
67817;DHT22;54614;47.576;7.524;2022-12-18T16:26:56;20.70;49.10
67817;DHT22;54614;47.576;7.524;2022-12-18T16:29:26;20.70;49.10
67817;DHT22;54614;47.576;7.524;2022-12-18T16:31:54;20.70;49.10
67817;DHT22;54614;47.576;7.524;2022-12-18T16:36:54;20.70;49.10
67817;DHT22;54614;47.576;7.524;2022-12-18T16:39:21;20.70;49.10
67817;DHT22;54614;47.576;7.524;2022-12-18T16:41:47;20.70;49.10
67817;DHT22;54614;47.576;7.524;2022-12-18T16:44:14;20.70;49.20
67817;DHT22;54614;47.576;7.524;2022-12-18T16:46:40;20.60;49.10
67817;DHT22;54614;47.576;7.524;2022-12-18T16:49:14;20.60;49.10
67817;DHT22;54614;47.576;7.524;2022-12-18T16:51:41;20.70;49.10
67817;DHT22;54614;47.576;7.524;2022-12-18T16:54:08;20.70;49.10
67817;DHT22;54614;47.576;7.524;2022-12-18T16:56:34;20.70;49.20
67817;DHT22;54614;47.576;7.524;2022-12-18T16:59:01;20.60;49.10
67817;DHT22;54614;47.576;7.524;2022-12-18T17:01:30;20.60;49.10
67817;DHT22;54614;47.576;7.524;2022-12-18T17:04:02;20.60;49.10
67817;DHT22;54614;47.576;7.524;2022-12-18T17:06:33;20.60;49.10
67817;DHT22;54614;47.576;7.524;2022-12-18T17:09:03;20.60;50.00
67817;DHT22;54614;47.576;7.524;2022-12-18T17:11:32;20.60;49.20
67817;DHT22;54614;47.576;7.524;2022-12-18T17:14:04;20.60;49.10
67817;DHT22;54614;47.576;7.524;2022-12-18T17:16:49;20.60;49.10
67817;DHT22;54614;47.576;7.524;2022-12-18T17:19:16;20.60;49.20
67817;DHT22;54614;47.576;7.524;2022-12-18T17:21:43;20.60;49.10
67817;DHT22;54614;47.576;7.524;2022-12-18T17:24:09;20.60;49.30
67817;DHT22;54614;47.576;7.524;2022-12-18T17:26:36;20.60;49.20
67817;DHT22;54614;47.576;7.524;2022-12-18T17:29:02;20.60;49.20
67817;DHT22;54614;47.576;7.524;2022-12-18T17:31:29;20.60;49.20
67817;DHT22;54614;47.576;7.524;2022-12-18T17:33:57;20.60;49.10
67817;DHT22;54614;47.576;7.524;2022-12-18T17:36:24;20.60;49.20
67817;DHT22;54614;47.576;7.524;2022-12-18T17:38:55;20.60;49.10
67817;DHT22;54614;47.576;7.524;2022-12-18T17:41:23;20.60;49.20
67817;DHT22;54614;47.576;7.524;2022-12-18T17:43:53;20.60;49.20
67817;DHT22;54614;47.576;7.524;2022-12-18T17:46:20;20.50;49.20
67817;DHT22;54614;47.576;7.524;2022-12-18T17:48:47;20.50;49.20
67817;DHT22;54614;47.576;7.524;2022-12-18T17:51:13;20.50;49.20
67817;DHT22;54614;47.576;7.524;2022-12-18T17:53:40;20.50;49.20
67817;DHT22;54614;47.576;7.524;2022-12-18T17:56:08;20.50;49.20
67817;DHT22;54614;47.576;7.524;2022-12-18T17:58:37;20.50;49.20
67817;DHT22;54614;47.576;7.524;2022-12-18T18:01:05;20.50;49.30
67817;DHT22;54614;47.576;7.524;2022-12-18T18:03:33;20.50;49.20